sensor_id;sensor_type;location;lat;lon;timestamp;P1;durP1;ratioP1;P2;durP2;ratioP2
5452;SDS011;2749;53.576;9.822;2022-09-21T00:00:18;5.73;;;3.07;;
5452;SDS011;2749;53.576;9.822;2022-09-21T00:02:44;4.90;;;3.07;;
5452;SDS011;2749;53.576;9.822;2022-09-21T00:05:10;6.03;;;3.93;;
5452;SDS011;2749;53.576;9.822;2022-09-21T00:07:36;5.83;;;3.70;;
5452;SDS011;2749;53.576;9.822;2022-09-21T00:10:02;3.43;;;2.80;;
5452;SDS011;2749;53.576;9.822;2022-09-21T00:12:28;5.30;;;3.50;;
5452;SDS011;2749;53.576;9.822;2022-09-21T00:14:55;4.50;;;3.37;;
5452;SDS011;2749;53.576;9.822;2022-09-21T00:17:21;3.30;;;2.73;;
5452;SDS011;2749;53.576;9.822;2022-09-21T00:19:47;3.43;;;3.00;;
5452;SDS011;2749;53.576;9.822;2022-09-21T00:22:13;7.30;;;3.53;;
5452;SDS011;2749;53.576;9.822;2022-09-21T00:24:39;6.93;;;3.17;;
5452;SDS011;2749;53.576;9.822;2022-09-21T00:27:05;6.67;;;2.73;;
5452;SDS011;2749;53.576;9.822;2022-09-21T00:29:31;4.70;;;2.87;;
5452;SDS011;2749;53.576;9.822;2022-09-21T00:31:57;6.80;;;2.90;;
5452;SDS011;2749;53.576;9.822;2022-09-21T00:34:23;6.50;;;2.60;;
5452;SDS011;2749;53.576;9.822;2022-09-21T00:36:49;3.63;;;2.33;;
5452;SDS011;2749;53.576;9.822;2022-09-21T00:39:15;4.30;;;2.90;;
5452;SDS011;2749;53.576;9.822;2022-09-21T00:41:41;4.77;;;2.70;;
5452;SDS011;2749;53.576;9.822;2022-09-21T00:44:15;4.70;;;2.83;;
5452;SDS011;2749;53.576;9.822;2022-09-21T00:46:44;6.13;;;3.10;;
5452;SDS011;2749;53.576;9.822;2022-09-21T00:49:11;5.77;;;2.60;;
5452;SDS011;2749;53.576;9.822;2022-09-21T00:51:37;6.30;;;3.40;;
5452;SDS011;2749;53.576;9.822;2022-09-21T00:54:04;2.57;;;2.37;;
5452;SDS011;2749;53.576;9.822;2022-09-21T00:56:33;3.13;;;2.83;;
5452;SDS011;2749;53.576;9.822;2022-09-21T00:59:00;5.53;;;3.10;;
5452;SDS011;2749;53.576;9.822;2022-09-21T01:01:27;6.47;;;3.20;;
5452;SDS011;2749;53.576;9.822;2022-09-21T01:03:53;5.80;;;2.97;;
5452;SDS011;2749;53.576;9.822;2022-09-21T01:06:21;5.37;;;3.03;;
5452;SDS011;2749;53.576;9.822;2022-09-21T01:08:51;12.13;;;3.70;;
5452;SDS011;2749;53.576;9.822;2022-09-21T01:13:50;4.73;;;3.10;;
5452;SDS011;2749;53.576;9.822;2022-09-21T01:18:59;5.90;;;3.67;;
5452;SDS011;2749;53.576;9.822;2022-09-21T01:21:32;5.70;;;3.00;;
5452;SDS011;2749;53.576;9.822;2022-09-21T01:24:16;5.50;;;3.07;;
5452;SDS011;2749;53.576;9.822;2022-09-21T01:29:30;4.47;;;3.40;;
5452;SDS011;2749;53.576;9.822;2022-09-21T01:34:37;4.70;;;3.83;;
5452;SDS011;2749;53.576;9.822;2022-09-21T01:37:09;4.90;;;2.60;;
5452;SDS011;2749;53.576;9.822;2022-09-21T01:39:36;6.13;;;3.30;;
5452;SDS011;2749;53.576;9.822;2022-09-21T01:42:04;8.43;;;4.17;;
5452;SDS011;2749;53.576;9.822;2022-09-21T01:44:31;4.77;;;3.30;;
5452;SDS011;2749;53.576;9.822;2022-09-21T01:47:00;7.10;;;4.07;;
5452;SDS011;2749;53.576;9.822;2022-09-21T01:49:28;2.93;;;2.60;;
5452;SDS011;2749;53.576;9.822;2022-09-21T01:52:07;6.50;;;2.90;;
5452;SDS011;2749;53.576;9.822;2022-09-21T01:54:38;4.10;;;2.97;;
5452;SDS011;2749;53.576;9.822;2022-09-21T01:57:14;3.20;;;2.90;;
5452;SDS011;2749;53.576;9.822;2022-09-21T01:59:45;8.33;;;3.83;;
5452;SDS011;2749;53.576;9.822;2022-09-21T02:02:14;4.80;;;2.80;;
5452;SDS011;2749;53.576;9.822;2022-09-21T02:04:42;8.93;;;3.93;;
5452;SDS011;2749;53.576;9.822;2022-09-21T02:07:08;6.40;;;3.20;;
5452;SDS011;2749;53.576;9.822;2022-09-21T02:09:36;5.80;;;3.27;;
5452;SDS011;2749;53.576;9.822;2022-09-21T02:12:03;6.10;;;4.20;;
5452;SDS011;2749;53.576;9.822;2022-09-21T02:14:29;4.33;;;2.67;;
5452;SDS011;2749;53.576;9.822;2022-09-21T02:24:46;7.23;;;3.47;;
5452;SDS011;2749;53.576;9.822;2022-09-21T02:27:19;3.60;;;2.87;;
5452;SDS011;2749;53.576;9.822;2022-09-21T02:32:24;3.37;;;2.50;;
5452;SDS011;2749;53.576;9.822;2022-09-21T02:34:58;3.73;;;2.40;;
5452;SDS011;2749;53.576;9.822;2022-09-21T02:37:30;5.93;;;2.40;;
5452;SDS011;2749;53.576;9.822;2022-09-21T02:40:00;5.13;;;3.40;;
5452;SDS011;2749;53.576;9.822;2022-09-21T02:42:31;4.27;;;2.70;;
5452;SDS011;2749;53.576;9.822;2022-09-21T02:45:04;4.53;;;3.10;;
5452;SDS011;2749;53.576;9.822;2022-09-21T02:47:33;2.17;;;1.97;;
5452;SDS011;2749;53.576;9.822;2022-09-21T02:50:03;4.17;;;2.50;;
5452;SDS011;2749;53.576;9.822;2022-09-21T02:52:30;6.03;;;3.30;;
5452;SDS011;2749;53.576;9.822;2022-09-21T02:54:57;3.03;;;2.73;;
5452;SDS011;2749;53.576;9.822;2022-09-21T02:57:23;4.13;;;2.90;;
5452;SDS011;2749;53.576;9.822;2022-09-21T02:59:50;4.17;;;2.83;;
5452;SDS011;2749;53.576;9.822;2022-09-21T03:02:16;3.93;;;2.73;;
5452;SDS011;2749;53.576;9.822;2022-09-21T03:04:42;5.60;;;3.33;;
5452;SDS011;2749;53.576;9.822;2022-09-21T03:07:11;4.57;;;4.17;;
5452;SDS011;2749;53.576;9.822;2022-09-21T03:09:37;6.23;;;3.03;;
5452;SDS011;2749;53.576;9.822;2022-09-21T03:12:03;4.00;;;2.63;;
5452;SDS011;2749;53.576;9.822;2022-09-21T03:14:29;3.80;;;3.50;;
5452;SDS011;2749;53.576;9.822;2022-09-21T03:16:56;4.30;;;3.00;;
5452;SDS011;2749;53.576;9.822;2022-09-21T03:19:23;3.23;;;2.67;;
5452;SDS011;2749;53.576;9.822;2022-09-21T03:21:49;6.43;;;3.90;;
5452;SDS011;2749;53.576;9.822;2022-09-21T03:24:15;5.70;;;3.43;;
5452;SDS011;2749;53.576;9.822;2022-09-21T03:27:01;4.93;;;2.83;;
5452;SDS011;2749;53.576;9.822;2022-09-21T03:29:27;5.47;;;3.50;;
5452;SDS011;2749;53.576;9.822;2022-09-21T03:31:53;5.03;;;3.40;;
5452;SDS011;2749;53.576;9.822;2022-09-21T03:34:19;3.53;;;2.90;;
5452;SDS011;2749;53.576;9.822;2022-09-21T03:36:45;3.80;;;2.97;;
5452;SDS011;2749;53.576;9.822;2022-09-21T03:39:12;3.83;;;2.93;;
5452;SDS011;2749;53.576;9.822;2022-09-21T03:41:38;3.10;;;2.77;;
5452;SDS011;2749;53.576;9.822;2022-09-21T03:44:04;5.10;;;3.03;;
5452;SDS011;2749;53.576;9.822;2022-09-21T03:46:30;4.30;;;3.70;;
5452;SDS011;2749;53.576;9.822;2022-09-21T03:48:59;4.67;;;3.63;;
5452;SDS011;2749;53.576;9.822;2022-09-21T03:51:25;3.63;;;2.97;;
5452;SDS011;2749;53.576;9.822;2022-09-21T03:53:51;6.33;;;2.93;;
5452;SDS011;2749;53.576;9.822;2022-09-21T03:56:17;4.67;;;3.60;;
5452;SDS011;2749;53.576;9.822;2022-09-21T03:58:42;6.17;;;3.57;;
5452;SDS011;2749;53.576;9.822;2022-09-21T04:01:08;6.87;;;3.97;;
5452;SDS011;2749;53.576;9.822;2022-09-21T04:03:34;5.90;;;4.10;;
5452;SDS011;2749;53.576;9.822;2022-09-21T04:06:07;4.17;;;3.30;;
5452;SDS011;2749;53.576;9.822;2022-09-21T04:08:33;4.03;;;3.40;;
5452;SDS011;2749;53.576;9.822;2022-09-21T04:10:59;4.30;;;3.90;;
5452;SDS011;2749;53.576;9.822;2022-09-21T04:13:26;6.70;;;4.03;;
5452;SDS011;2749;53.576;9.822;2022-09-21T04:15:52;4.93;;;3.23;;
5452;SDS011;2749;53.576;9.822;2022-09-21T04:18:18;4.23;;;3.83;;
5452;SDS011;2749;53.576;9.822;2022-09-21T04:20:44;6.63;;;4.33;;
5452;SDS011;2749;53.576;9.822;2022-09-21T04:23:10;4.93;;;4.30;;
5452;SDS011;2749;53.576;9.822;2022-09-21T04:25:35;5.63;;;3.73;;
5452;SDS011;2749;53.576;9.822;2022-09-21T04:28:01;5.53;;;4.73;;
5452;SDS011;2749;53.576;9.822;2022-09-21T04:30:27;6.27;;;4.80;;
5452;SDS011;2749;53.576;9.822;2022-09-21T04:32:54;7.90;;;4.97;;
5452;SDS011;2749;53.576;9.822;2022-09-21T04:35:20;4.90;;;4.40;;
5452;SDS011;2749;53.576;9.822;2022-09-21T04:37:46;4.63;;;4.23;;
5452;SDS011;2749;53.576;9.822;2022-09-21T04:40:11;4.37;;;3.70;;
5452;SDS011;2749;53.576;9.822;2022-09-21T04:42:37;4.60;;;4.20;;
5452;SDS011;2749;53.576;9.822;2022-09-21T04:45:04;8.60;;;4.80;;
5452;SDS011;2749;53.576;9.822;2022-09-21T04:47:30;6.47;;;5.73;;
5452;SDS011;2749;53.576;9.822;2022-09-21T04:49:56;8.07;;;6.00;;
5452;SDS011;2749;53.576;9.822;2022-09-21T04:52:22;8.90;;;6.20;;
5452;SDS011;2749;53.576;9.822;2022-09-21T04:54:48;6.90;;;6.20;;
5452;SDS011;2749;53.576;9.822;2022-09-21T04:57:14;7.63;;;6.30;;
5452;SDS011;2749;53.576;9.822;2022-09-21T04:59:40;7.90;;;7.00;;
5452;SDS011;2749;53.576;9.822;2022-09-21T05:02:06;8.80;;;6.90;;
5452;SDS011;2749;53.576;9.822;2022-09-21T05:04:32;7.67;;;6.17;;
5452;SDS011;2749;53.576;9.822;2022-09-21T05:06:58;8.13;;;7.10;;
5452;SDS011;2749;53.576;9.822;2022-09-21T05:09:24;7.80;;;7.00;;
5452;SDS011;2749;53.576;9.822;2022-09-21T05:12:08;8.17;;;7.40;;
5452;SDS011;2749;53.576;9.822;2022-09-21T05:14:34;11.20;;;6.80;;
5452;SDS011;2749;53.576;9.822;2022-09-21T05:17:00;9.90;;;6.77;;
5452;SDS011;2749;53.576;9.822;2022-09-21T05:19:26;6.47;;;5.87;;
5452;SDS011;2749;53.576;9.822;2022-09-21T05:21:52;5.43;;;4.40;;
5452;SDS011;2749;53.576;9.822;2022-09-21T05:24:18;6.17;;;5.00;;
5452;SDS011;2749;53.576;9.822;2022-09-21T05:26:44;6.60;;;5.17;;
5452;SDS011;2749;53.576;9.822;2022-09-21T05:29:10;6.43;;;5.60;;
5452;SDS011;2749;53.576;9.822;2022-09-21T05:31:43;8.80;;;5.93;;
5452;SDS011;2749;53.576;9.822;2022-09-21T05:36:41;6.47;;;5.87;;
5452;SDS011;2749;53.576;9.822;2022-09-21T05:39:09;8.70;;;6.40;;
5452;SDS011;2749;53.576;9.822;2022-09-21T05:41:36;9.73;;;7.33;;
5452;SDS011;2749;53.576;9.822;2022-09-21T05:44:02;8.27;;;7.27;;
5452;SDS011;2749;53.576;9.822;2022-09-21T05:46:33;11.30;;;8.10;;
5452;SDS011;2749;53.576;9.822;2022-09-21T05:57:18;9.87;;;7.13;;
5452;SDS011;2749;53.576;9.822;2022-09-21T06:00:30;8.90;;;6.80;;
5452;SDS011;2749;53.576;9.822;2022-09-21T06:02:42;11.93;;;8.33;;
5452;SDS011;2749;53.576;9.822;2022-09-21T06:05:10;7.90;;;7.10;;
5452;SDS011;2749;53.576;9.822;2022-09-21T06:07:37;7.73;;;6.93;;
5452;SDS011;2749;53.576;9.822;2022-09-21T06:10:03;8.63;;;7.53;;
5452;SDS011;2749;53.576;9.822;2022-09-21T06:12:29;8.47;;;7.43;;
5452;SDS011;2749;53.576;9.822;2022-09-21T06:14:54;8.87;;;7.73;;
5452;SDS011;2749;53.576;9.822;2022-09-21T06:17:21;9.67;;;8.73;;
5452;SDS011;2749;53.576;9.822;2022-09-21T06:19:47;9.03;;;8.10;;
5452;SDS011;2749;53.576;9.822;2022-09-21T06:22:13;9.33;;;7.67;;
5452;SDS011;2749;53.576;9.822;2022-09-21T06:24:39;7.80;;;7.07;;
5452;SDS011;2749;53.576;9.822;2022-09-21T06:27:04;12.00;;;9.20;;
5452;SDS011;2749;53.576;9.822;2022-09-21T06:29:30;8.10;;;7.30;;
5452;SDS011;2749;53.576;9.822;2022-09-21T06:31:56;9.77;;;8.20;;
5452;SDS011;2749;53.576;9.822;2022-09-21T06:34:23;7.87;;;7.07;;
5452;SDS011;2749;53.576;9.822;2022-09-21T06:36:49;10.30;;;7.60;;
5452;SDS011;2749;53.576;9.822;2022-09-21T06:39:15;9.93;;;8.40;;
5452;SDS011;2749;53.576;9.822;2022-09-21T06:41:41;8.73;;;7.80;;
5452;SDS011;2749;53.576;9.822;2022-09-21T06:44:07;8.30;;;7.40;;
5452;SDS011;2749;53.576;9.822;2022-09-21T06:46:33;10.30;;;7.83;;
5452;SDS011;2749;53.576;9.822;2022-09-21T06:48:59;10.27;;;9.37;;
5452;SDS011;2749;53.576;9.822;2022-09-21T06:51:25;9.40;;;7.40;;
5452;SDS011;2749;53.576;9.822;2022-09-21T06:53:54;11.57;;;9.57;;
5452;SDS011;2749;53.576;9.822;2022-09-21T06:56:20;9.47;;;8.60;;
5452;SDS011;2749;53.576;9.822;2022-09-21T06:58:46;8.87;;;8.07;;
5452;SDS011;2749;53.576;9.822;2022-09-21T07:01:13;10.07;;;9.00;;
5452;SDS011;2749;53.576;9.822;2022-09-21T07:03:39;10.60;;;9.60;;
5452;SDS011;2749;53.576;9.822;2022-09-21T07:06:06;10.67;;;9.67;;
5452;SDS011;2749;53.576;9.822;2022-09-21T07:08:32;12.13;;;9.53;;
5452;SDS011;2749;53.576;9.822;2022-09-21T07:11:00;9.53;;;8.63;;
5452;SDS011;2749;53.576;9.822;2022-09-21T07:13:27;9.90;;;8.00;;
5452;SDS011;2749;53.576;9.822;2022-09-21T07:15:53;12.13;;;10.93;;
5452;SDS011;2749;53.576;9.822;2022-09-21T07:18:19;10.03;;;9.00;;
5452;SDS011;2749;53.576;9.822;2022-09-21T07:20:46;10.43;;;9.40;;
5452;SDS011;2749;53.576;9.822;2022-09-21T07:23:16;13.53;;;11.13;;
5452;SDS011;2749;53.576;9.822;2022-09-21T07:25:42;12.30;;;11.10;;
5452;SDS011;2749;53.576;9.822;2022-09-21T07:28:09;13.87;;;11.30;;
5452;SDS011;2749;53.576;9.822;2022-09-21T07:30:35;12.20;;;10.93;;
5452;SDS011;2749;53.576;9.822;2022-09-21T07:33:02;16.37;;;12.30;;
5452;SDS011;2749;53.576;9.822;2022-09-21T07:35:28;15.77;;;13.97;;
5452;SDS011;2749;53.576;9.822;2022-09-21T07:37:56;16.70;;;12.93;;
5452;SDS011;2749;53.576;9.822;2022-09-21T07:40:22;16.87;;;13.90;;
5452;SDS011;2749;53.576;9.822;2022-09-21T07:42:48;20.53;;;13.73;;
5452;SDS011;2749;53.576;9.822;2022-09-21T07:45:14;15.87;;;14.17;;
5452;SDS011;2749;53.576;9.822;2022-09-21T07:47:40;18.20;;;14.90;;
5452;SDS011;2749;53.576;9.822;2022-09-21T07:50:06;19.57;;;13.63;;
5452;SDS011;2749;53.576;9.822;2022-09-21T07:52:32;19.10;;;14.80;;
5452;SDS011;2749;53.576;9.822;2022-09-21T07:54:59;17.93;;;14.33;;
5452;SDS011;2749;53.576;9.822;2022-09-21T07:57:24;17.23;;;14.73;;
5452;SDS011;2749;53.576;9.822;2022-09-21T08:00:12;16.97;;;14.57;;
5452;SDS011;2749;53.576;9.822;2022-09-21T08:02:38;19.77;;;15.57;;
5452;SDS011;2749;53.576;9.822;2022-09-21T08:05:04;17.60;;;14.37;;
5452;SDS011;2749;53.576;9.822;2022-09-21T08:07:30;15.83;;;13.40;;
5452;SDS011;2749;53.576;9.822;2022-09-21T08:09:56;18.33;;;15.30;;
5452;SDS011;2749;53.576;9.822;2022-09-21T08:12:22;19.40;;;14.30;;
5452;SDS011;2749;53.576;9.822;2022-09-21T08:14:48;26.43;;;14.27;;
5452;SDS011;2749;53.576;9.822;2022-09-21T08:17:14;16.37;;;13.10;;
5452;SDS011;2749;53.576;9.822;2022-09-21T08:19:40;11.60;;;10.40;;
5452;SDS011;2749;53.576;9.822;2022-09-21T08:22:06;22.47;;;15.10;;
5452;SDS011;2749;53.576;9.822;2022-09-21T08:24:32;15.53;;;12.53;;
5452;SDS011;2749;53.576;9.822;2022-09-21T08:26:59;21.93;;;13.20;;
5452;SDS011;2749;53.576;9.822;2022-09-21T08:29:25;16.60;;;12.70;;
5452;SDS011;2749;53.576;9.822;2022-09-21T08:31:51;14.57;;;12.63;;
5452;SDS011;2749;53.576;9.822;2022-09-21T08:34:17;14.00;;;10.10;;
5452;SDS011;2749;53.576;9.822;2022-09-21T08:36:43;11.67;;;9.47;;
5452;SDS011;2749;53.576;9.822;2022-09-21T08:39:10;11.17;;;9.97;;
5452;SDS011;2749;53.576;9.822;2022-09-21T08:44:22;13.63;;;9.40;;
5452;SDS011;2749;53.576;9.822;2022-09-21T08:47:10;11.90;;;10.37;;
5452;SDS011;2749;53.576;9.822;2022-09-21T08:49:37;11.33;;;9.80;;
5452;SDS011;2749;53.576;9.822;2022-09-21T08:52:06;13.40;;;11.27;;
5452;SDS011;2749;53.576;9.822;2022-09-21T08:57:11;15.97;;;11.30;;
5452;SDS011;2749;53.576;9.822;2022-09-21T08:59:40;17.33;;;12.20;;
5452;SDS011;2749;53.576;9.822;2022-09-21T09:05:17;12.10;;;10.90;;
5452;SDS011;2749;53.576;9.822;2022-09-21T09:10:35;17.00;;;10.50;;
5452;SDS011;2749;53.576;9.822;2022-09-21T09:13:06;7.80;;;5.63;;
5452;SDS011;2749;53.576;9.822;2022-09-21T09:15:53;5.93;;;4.73;;
5452;SDS011;2749;53.576;9.822;2022-09-21T09:23:49;9.20;;;7.93;;
5452;SDS011;2749;53.576;9.822;2022-09-21T09:26:24;5.63;;;4.10;;
5452;SDS011;2749;53.576;9.822;2022-09-21T09:29:03;5.93;;;4.73;;
5452;SDS011;2749;53.576;9.822;2022-09-21T09:31:32;5.70;;;3.13;;
5452;SDS011;2749;53.576;9.822;2022-09-21T09:34:07;6.10;;;2.80;;
5452;SDS011;2749;53.576;9.822;2022-09-21T09:36:33;4.10;;;3.00;;
5452;SDS011;2749;53.576;9.822;2022-09-21T09:39:04;4.37;;;2.60;;
5452;SDS011;2749;53.576;9.822;2022-09-21T09:41:40;3.03;;;2.83;;
5452;SDS011;2749;53.576;9.822;2022-09-21T09:46:57;4.70;;;2.17;;
5452;SDS011;2749;53.576;9.822;2022-09-21T09:49:33;4.33;;;3.20;;
5452;SDS011;2749;53.576;9.822;2022-09-21T09:52:01;2.80;;;2.37;;
5452;SDS011;2749;53.576;9.822;2022-09-21T09:54:28;4.83;;;2.60;;
5452;SDS011;2749;53.576;9.822;2022-09-21T09:56:58;4.63;;;2.37;;
5452;SDS011;2749;53.576;9.822;2022-09-21T09:59:30;4.80;;;2.67;;
5452;SDS011;2749;53.576;9.822;2022-09-21T10:01:58;2.50;;;2.30;;
5452;SDS011;2749;53.576;9.822;2022-09-21T10:04:24;5.80;;;2.27;;
5452;SDS011;2749;53.576;9.822;2022-09-21T10:06:51;4.57;;;1.73;;
5452;SDS011;2749;53.576;9.822;2022-09-21T10:09:19;2.53;;;2.23;;
5452;SDS011;2749;53.576;9.822;2022-09-21T10:11:45;4.70;;;2.00;;
5452;SDS011;2749;53.576;9.822;2022-09-21T10:14:13;3.90;;;1.70;;
5452;SDS011;2749;53.576;9.822;2022-09-21T10:16:41;2.60;;;1.80;;
5452;SDS011;2749;53.576;9.822;2022-09-21T10:19:19;4.00;;;1.80;;
5452;SDS011;2749;53.576;9.822;2022-09-21T10:21:45;2.10;;;1.87;;
5452;SDS011;2749;53.576;9.822;2022-09-21T10:24:28;4.63;;;1.97;;
5452;SDS011;2749;53.576;9.822;2022-09-21T10:27:10;3.20;;;2.60;;
5452;SDS011;2749;53.576;9.822;2022-09-21T10:32:05;4.10;;;2.73;;
5452;SDS011;2749;53.576;9.822;2022-09-21T10:37:31;4.30;;;3.67;;
5452;SDS011;2749;53.576;9.822;2022-09-21T10:42:45;2.83;;;2.23;;
5452;SDS011;2749;53.576;9.822;2022-09-21T10:45:16;3.40;;;2.50;;
5452;SDS011;2749;53.576;9.822;2022-09-21T10:47:43;3.60;;;2.20;;
5452;SDS011;2749;53.576;9.822;2022-09-21T10:50:26;6.03;;;2.80;;
5452;SDS011;2749;53.576;9.822;2022-09-21T10:52:59;3.13;;;2.30;;
5452;SDS011;2749;53.576;9.822;2022-09-21T10:55:26;2.33;;;1.70;;
5452;SDS011;2749;53.576;9.822;2022-09-21T10:57:52;3.20;;;2.17;;
5452;SDS011;2749;53.576;9.822;2022-09-21T11:02:48;5.60;;;2.37;;
5452;SDS011;2749;53.576;9.822;2022-09-21T11:05:35;6.93;;;4.70;;
5452;SDS011;2749;53.576;9.822;2022-09-21T11:18:47;1.77;;;1.67;;
5452;SDS011;2749;53.576;9.822;2022-09-21T11:21:18;1.97;;;1.50;;
5452;SDS011;2749;53.576;9.822;2022-09-21T11:26:38;3.10;;;1.87;;
5452;SDS011;2749;53.576;9.822;2022-09-21T11:29:09;2.60;;;1.43;;
5452;SDS011;2749;53.576;9.822;2022-09-21T11:31:43;3.73;;;1.60;;
5452;SDS011;2749;53.576;9.822;2022-09-21T11:41:52;1.43;;;1.03;;
5452;SDS011;2749;53.576;9.822;2022-09-21T11:44:25;1.37;;;1.13;;
5452;SDS011;2749;53.576;9.822;2022-09-21T11:57:30;1.27;;;0.90;;
5452;SDS011;2749;53.576;9.822;2022-09-21T12:00:07;1.93;;;1.23;;
5452;SDS011;2749;53.576;9.822;2022-09-21T12:08:05;1.20;;;1.10;;
5452;SDS011;2749;53.576;9.822;2022-09-21T12:13:27;4.77;;;1.53;;
5452;SDS011;2749;53.576;9.822;2022-09-21T12:21:17;4.07;;;2.10;;
5452;SDS011;2749;53.576;9.822;2022-09-21T12:26:14;6.60;;;4.10;;
5452;SDS011;2749;53.576;9.822;2022-09-21T12:28:44;3.20;;;1.57;;
5452;SDS011;2749;53.576;9.822;2022-09-21T12:31:15;3.63;;;1.73;;
5452;SDS011;2749;53.576;9.822;2022-09-21T12:34:26;2.53;;;1.40;;
5452;SDS011;2749;53.576;9.822;2022-09-21T12:36:43;3.23;;;1.50;;
5452;SDS011;2749;53.576;9.822;2022-09-21T12:39:31;2.97;;;2.10;;
5452;SDS011;2749;53.576;9.822;2022-09-21T12:44:38;2.30;;;1.57;;
5452;SDS011;2749;53.576;9.822;2022-09-21T12:47:16;3.17;;;1.13;;
5452;SDS011;2749;53.576;9.822;2022-09-21T12:49:45;1.30;;;1.20;;
5452;SDS011;2749;53.576;9.822;2022-09-21T12:52:23;3.77;;;1.40;;
5452;SDS011;2749;53.576;9.822;2022-09-21T12:54:59;2.77;;;1.60;;
5452;SDS011;2749;53.576;9.822;2022-09-21T12:57:36;1.97;;;1.50;;
5452;SDS011;2749;53.576;9.822;2022-09-21T13:02:50;1.57;;;1.43;;
5452;SDS011;2749;53.576;9.822;2022-09-21T13:05:33;1.03;;;0.93;;
5452;SDS011;2749;53.576;9.822;2022-09-21T13:10:31;2.87;;;0.97;;
5452;SDS011;2749;53.576;9.822;2022-09-21T13:13:03;2.20;;;0.97;;
5452;SDS011;2749;53.576;9.822;2022-09-21T13:15:38;1.30;;;1.03;;
5452;SDS011;2749;53.576;9.822;2022-09-21T13:18:17;1.27;;;1.00;;
5452;SDS011;2749;53.576;9.822;2022-09-21T13:20:45;1.57;;;1.43;;
5452;SDS011;2749;53.576;9.822;2022-09-21T13:23:19;2.00;;;1.33;;
5452;SDS011;2749;53.576;9.822;2022-09-21T13:25:46;2.10;;;1.37;;
5452;SDS011;2749;53.576;9.822;2022-09-21T13:38:32;3.00;;;1.37;;
5452;SDS011;2749;53.576;9.822;2022-09-21T13:41:23;4.50;;;1.77;;
5452;SDS011;2749;53.576;9.822;2022-09-21T13:49:04;1.50;;;1.00;;
5452;SDS011;2749;53.576;9.822;2022-09-21T13:51:51;2.07;;;1.20;;
5452;SDS011;2749;53.576;9.822;2022-09-21T13:54:22;2.33;;;1.60;;
5452;SDS011;2749;53.576;9.822;2022-09-21T13:56:59;1.67;;;1.53;;
5452;SDS011;2749;53.576;9.822;2022-09-21T13:59:28;1.07;;;0.97;;
5452;SDS011;2749;53.576;9.822;2022-09-21T14:01:55;2.50;;;1.13;;
5452;SDS011;2749;53.576;9.822;2022-09-21T14:04:25;1.30;;;1.03;;
5452;SDS011;2749;53.576;9.822;2022-09-21T14:06:52;2.83;;;1.23;;
5452;SDS011;2749;53.576;9.822;2022-09-21T14:09:23;2.00;;;1.33;;
5452;SDS011;2749;53.576;9.822;2022-09-21T14:11:58;1.57;;;1.10;;
5452;SDS011;2749;53.576;9.822;2022-09-21T14:14:30;3.00;;;1.30;;
5452;SDS011;2749;53.576;9.822;2022-09-21T14:16:57;1.10;;;0.93;;
5452;SDS011;2749;53.576;9.822;2022-09-21T14:24:38;1.80;;;1.10;;
5452;SDS011;2749;53.576;9.822;2022-09-21T14:27:15;2.57;;;1.77;;
5452;SDS011;2749;53.576;9.822;2022-09-21T14:29:47;1.20;;;1.00;;
5452;SDS011;2749;53.576;9.822;2022-09-21T14:32:19;1.50;;;1.00;;
5452;SDS011;2749;53.576;9.822;2022-09-21T14:34:47;2.57;;;1.30;;
5452;SDS011;2749;53.576;9.822;2022-09-21T14:37:20;1.63;;;1.27;;
5452;SDS011;2749;53.576;9.822;2022-09-21T14:39:51;2.33;;;1.33;;
5452;SDS011;2749;53.576;9.822;2022-09-21T14:42:18;1.60;;;1.40;;
5452;SDS011;2749;53.576;9.822;2022-09-21T14:44:47;2.20;;;0.80;;
5452;SDS011;2749;53.576;9.822;2022-09-21T14:47:25;1.87;;;1.20;;
5452;SDS011;2749;53.576;9.822;2022-09-21T14:55:10;1.63;;;1.00;;
5452;SDS011;2749;53.576;9.822;2022-09-21T15:00:36;2.80;;;1.40;;
5452;SDS011;2749;53.576;9.822;2022-09-21T15:05:43;1.10;;;0.77;;
5452;SDS011;2749;53.576;9.822;2022-09-21T15:11:09;3.53;;;1.00;;
5452;SDS011;2749;53.576;9.822;2022-09-21T15:16:20;3.20;;;1.00;;
5452;SDS011;2749;53.576;9.822;2022-09-21T15:18:50;3.00;;;1.30;;
5452;SDS011;2749;53.576;9.822;2022-09-21T15:21:18;2.80;;;1.13;;
5452;SDS011;2749;53.576;9.822;2022-09-21T15:23:45;1.73;;;0.90;;
5452;SDS011;2749;53.576;9.822;2022-09-21T15:26:15;1.20;;;1.10;;
5452;SDS011;2749;53.576;9.822;2022-09-21T15:28:46;1.40;;;1.00;;
5452;SDS011;2749;53.576;9.822;2022-09-21T15:31:14;0.87;;;0.70;;
5452;SDS011;2749;53.576;9.822;2022-09-21T15:33:40;1.03;;;0.90;;
5452;SDS011;2749;53.576;9.822;2022-09-21T15:36:20;1.30;;;0.70;;
5452;SDS011;2749;53.576;9.822;2022-09-21T15:38:48;1.10;;;0.67;;
5452;SDS011;2749;53.576;9.822;2022-09-21T15:44:14;3.43;;;1.07;;
5452;SDS011;2749;53.576;9.822;2022-09-21T15:46:41;1.20;;;0.90;;
5452;SDS011;2749;53.576;9.822;2022-09-21T15:49:09;5.20;;;1.23;;
5452;SDS011;2749;53.576;9.822;2022-09-21T15:51:36;0.80;;;0.73;;
5452;SDS011;2749;53.576;9.822;2022-09-21T15:56:49;1.50;;;1.00;;
5452;SDS011;2749;53.576;9.822;2022-09-21T15:59:16;1.37;;;0.93;;
5452;SDS011;2749;53.576;9.822;2022-09-21T16:01:45;3.20;;;1.53;;
5452;SDS011;2749;53.576;9.822;2022-09-21T16:04:13;1.30;;;0.87;;
5452;SDS011;2749;53.576;9.822;2022-09-21T16:06:43;2.07;;;1.00;;
5452;SDS011;2749;53.576;9.822;2022-09-21T16:11:52;1.57;;;1.10;;
5452;SDS011;2749;53.576;9.822;2022-09-21T16:14:18;1.77;;;1.03;;
5452;SDS011;2749;53.576;9.822;2022-09-21T16:22:13;0.97;;;0.87;;
5452;SDS011;2749;53.576;9.822;2022-09-21T16:24:59;2.20;;;0.93;;
5452;SDS011;2749;53.576;9.822;2022-09-21T16:27:26;2.70;;;1.10;;
5452;SDS011;2749;53.576;9.822;2022-09-21T16:29:53;2.03;;;1.00;;
5452;SDS011;2749;53.576;9.822;2022-09-21T16:32:26;3.10;;;1.10;;
5452;SDS011;2749;53.576;9.822;2022-09-21T16:34:53;1.70;;;1.30;;
5452;SDS011;2749;53.576;9.822;2022-09-21T16:37:29;3.73;;;1.20;;
5452;SDS011;2749;53.576;9.822;2022-09-21T16:39:55;3.17;;;0.97;;
5452;SDS011;2749;53.576;9.822;2022-09-21T16:42:22;1.80;;;1.23;;
5452;SDS011;2749;53.576;9.822;2022-09-21T16:44:49;1.93;;;0.93;;
5452;SDS011;2749;53.576;9.822;2022-09-21T16:47:18;2.40;;;1.07;;
5452;SDS011;2749;53.576;9.822;2022-09-21T16:49:51;1.60;;;1.30;;
5452;SDS011;2749;53.576;9.822;2022-09-21T16:52:21;3.00;;;1.40;;
5452;SDS011;2749;53.576;9.822;2022-09-21T16:54:47;2.83;;;1.20;;
5452;SDS011;2749;53.576;9.822;2022-09-21T16:57:13;2.27;;;1.00;;
5452;SDS011;2749;53.576;9.822;2022-09-21T16:59:40;2.17;;;1.40;;
5452;SDS011;2749;53.576;9.822;2022-09-21T17:02:06;1.73;;;1.20;;
5452;SDS011;2749;53.576;9.822;2022-09-21T17:04:34;1.50;;;1.40;;
5452;SDS011;2749;53.576;9.822;2022-09-21T17:07:00;2.17;;;1.57;;
5452;SDS011;2749;53.576;9.822;2022-09-21T17:09:30;2.40;;;1.50;;
5452;SDS011;2749;53.576;9.822;2022-09-21T17:11:57;3.30;;;2.30;;
5452;SDS011;2749;53.576;9.822;2022-09-21T17:14:25;3.80;;;2.13;;
5452;SDS011;2749;53.576;9.822;2022-09-21T17:16:52;1.73;;;1.63;;
5452;SDS011;2749;53.576;9.822;2022-09-21T17:19:18;2.63;;;1.70;;
5452;SDS011;2749;53.576;9.822;2022-09-21T17:21:45;2.10;;;1.60;;
5452;SDS011;2749;53.576;9.822;2022-09-21T17:24:11;3.07;;;1.97;;
5452;SDS011;2749;53.576;9.822;2022-09-21T17:26:38;2.33;;;2.00;;
5452;SDS011;2749;53.576;9.822;2022-09-21T17:29:23;2.80;;;2.13;;
5452;SDS011;2749;53.576;9.822;2022-09-21T17:31:51;2.70;;;2.23;;
5452;SDS011;2749;53.576;9.822;2022-09-21T17:34:19;2.70;;;2.13;;
5452;SDS011;2749;53.576;9.822;2022-09-21T17:36:46;3.33;;;2.67;;
5452;SDS011;2749;53.576;9.822;2022-09-21T17:39:11;3.67;;;2.77;;
5452;SDS011;2749;53.576;9.822;2022-09-21T17:44:10;2.63;;;2.40;;
5452;SDS011;2749;53.576;9.822;2022-09-21T17:46:41;2.70;;;2.37;;
5452;SDS011;2749;53.576;9.822;2022-09-21T17:49:10;3.20;;;2.40;;
5452;SDS011;2749;53.576;9.822;2022-09-21T17:51:36;3.03;;;2.57;;
5452;SDS011;2749;53.576;9.822;2022-09-21T17:54:21;3.23;;;2.87;;
5452;SDS011;2749;53.576;9.822;2022-09-21T17:57:02;5.13;;;3.63;;
5452;SDS011;2749;53.576;9.822;2022-09-21T17:59:34;11.00;;;3.97;;
5452;SDS011;2749;53.576;9.822;2022-09-21T18:02:01;7.17;;;5.00;;
5452;SDS011;2749;53.576;9.822;2022-09-21T18:04:27;6.27;;;5.50;;
5452;SDS011;2749;53.576;9.822;2022-09-21T18:06:54;7.50;;;6.80;;
5452;SDS011;2749;53.576;9.822;2022-09-21T18:09:20;8.37;;;7.50;;
5452;SDS011;2749;53.576;9.822;2022-09-21T18:24:57;4.90;;;4.40;;
5452;SDS011;2749;53.576;9.822;2022-09-21T18:27:23;9.70;;;6.57;;